Time;durP1;ratioP1;P1;durP2;ratioP2;P2;SDS_P1;SDS_P2;PMS_P1;PMS_P2;Temp;Humidity;BMP_temperature;BMP_pressure;BME280_temperature;BME280_humidity;BME280_pressure;Samples;Min_cycle;Max_cycle;Signal;HPM_P1;HPM_P2
2024/01/17 00:01:23;;;;;;;;;;;-1.90;99.90;;;;;;5080277;28;19897;-81
2024/01/17 00:03:49;;;;;;;;;;;-1.80;99.90;;;;;;5079470;28;19892;-81
2024/01/17 00:06:14;;;;;;;;;;;-2.10;99.90;;;;;;5080956;28;19917;-80
2024/01/17 00:08:40;;;;;;;;;;;-2.10;99.90;;;;;;5081020;28;19909;-80
2024/01/17 00:11:06;;;;;;;;;;;-1.70;99.90;;;;;;5097865;28;19923;-79
2024/01/17 00:13:34;;;;;;;;;;;-1.80;99.90;;;;;;5077244;28;19908;-80
2024/01/17 00:15:59;;;;;;;;;;;-1.80;99.90;;;;;;5077304;28;19955;-81
2024/01/17 00:18:25;;;;;;;;;;;-1.70;99.90;;;;;;5096895;28;20002;-80
2024/01/17 00:20:51;;;;;;;;;;;-1.50;99.90;;;;;;5079734;28;19918;-80
2024/01/17 00:23:17;;;;;;;;;;;-1.60;99.90;;;;;;5095074;28;19911;-81
2024/01/17 00:25:42;;;;;;;;;;;-1.50;99.90;;;;;;5078801;28;19932;-79
2024/01/17 00:28:08;;;;;;;;;;;-1.50;99.90;;;;;;5097110;28;19892;-81
2024/01/17 00:30:34;;;;;;;;;;;-1.50;99.90;;;;;;5079971;28;19928;-81
2024/01/17 00:33:00;;;;;;;;;;;-1.50;99.90;;;;;;5078608;28;19909;-81
2024/01/17 00:35:25;;;;;;;;;;;-1.20;99.90;;;;;;5077751;28;19923;-81
2024/01/17 00:37:51;;;;;;;;;;;-1.40;99.90;;;;;;5094655;28;19900;-81
2024/01/17 00:40:17;;;;;;;;;;;-1.50;99.90;;;;;;5095772;28;20402;-82
2024/01/17 00:42:42;;;;;;;;;;;-1.50;99.90;;;;;;5095434;28;19905;-81
2024/01/17 00:45:08;;;;;;;;;;;-1.50;99.90;;;;;;5077512;28;19924;-81
2024/01/17 00:47:34;;;;;;;;;;;-1.40;99.90;;;;;;5095092;28;19904;-80
2024/01/17 00:50:00;;;;;;;;;;;-1.30;99.90;;;;;;5094876;28;19923;-81
2024/01/17 00:52:25;;;;;;;;;;;-0.90;99.90;;;;;;5076825;28;19892;-81
2024/01/17 00:54:51;;;;;;;;;;;-0.80;99.90;;;;;;5078129;28;19892;-82
2024/01/17 00:57:16;;;;;;;;;;;-1.00;99.90;;;;;;5080612;28;19999;-82
2024/01/17 00:59:42;;;;;;;;;;;-1.10;99.90;;;;;;5079479;28;19932;-81
2024/01/17 01:02:08;;;;;;;;;;;-0.90;99.90;;;;;;5078492;28;19967;-81
2024/01/17 01:04:33;;;;;;;;;;;-1.10;99.90;;;;;;5078881;28;19958;-80
2024/01/17 01:06:59;;;;;;;;;;;-1.20;99.90;;;;;;5089501;28;20284;-80
2024/01/17 01:09:25;;;;;;;;;;;-1.70;99.90;;;;;;5090501;28;19909;-79
2024/01/17 01:11:50;;;;;;;;;;;-1.60;99.90;;;;;;5072628;28;19962;-80
2024/01/17 01:14:16;;;;;;;;;;;-1.80;99.90;;;;;;5073501;28;19931;-80
2024/01/17 01:16:42;;;;;;;;;;;-1.00;99.90;;;;;;5079364;28;19909;-81
2024/01/17 01:19:07;;;;;;;;;;;-2.40;99.90;;;;;;5080640;28;19896;-83
2024/01/17 01:21:33;;;;;;;;;;;-2.00;99.90;;;;;;5080117;28;19893;-81
2024/01/17 01:23:59;;;;;;;;;;;-2.00;99.90;;;;;;5077752;28;19973;-81
2024/01/17 01:26:25;;;;;;;;;;;-1.20;99.90;;;;;;5094007;28;19947;-82
2024/01/17 01:28:50;;;;;;;;;;;-2.10;99.90;;;;;;5076878;28;19959;-81
2024/01/17 01:31:16;;;;;;;;;;;-2.10;99.90;;;;;;5076256;28;19904;-80
2024/01/17 01:33:41;;;;;;;;;;;-2.20;99.90;;;;;;5075405;28;19909;-80
2024/01/17 01:36:07;;;;;;;;;;;-2.60;99.90;;;;;;5093767;28;19920;-80
2024/01/17 01:38:33;;;;;;;;;;;-2.30;99.90;;;;;;5075962;28;19893;-80
2024/01/17 01:40:58;;;;;;;;;;;-2.40;99.90;;;;;;5093261;28;19897;-80
2024/01/17 01:43:24;;;;;;;;;;;-2.30;99.90;;;;;;5075570;28;19908;-81
2024/01/17 01:46:02;;;;;;;;;;;-2.10;99.90;;;;;;5076620;28;19972;-79
2024/01/17 01:48:28;;;;;;;;;;;-2.20;99.90;;;;;;5079184;28;19912;-79
2024/01/17 01:50:53;;;;;;;;;;;-1.80;99.90;;;;;;5097026;28;19931;-81
2024/01/17 01:53:19;;;;;;;;;;;-2.00;99.90;;;;;;5077728;28;20436;-81
2024/01/17 01:55:45;;;;;;;;;;;-2.50;99.90;;;;;;5081206;28;19900;-81
2024/01/17 01:58:11;;;;;;;;;;;-2.50;99.90;;;;;;5082711;28;19953;-81
2024/01/17 02:00:36;;;;;;;;;;;-2.20;99.90;;;;;;5098689;28;19912;-81
2024/01/17 02:03:02;;;;;;;;;;;-2.60;99.90;;;;;;5081090;28;19931;-80
2024/01/17 02:05:28;;;;;;;;;;;-2.50;99.90;;;;;;5096457;28;19897;-80
2024/01/17 02:07:54;;;;;;;;;;;-1.90;99.90;;;;;;5092767;28;19968;-80
2024/01/17 02:10:20;;;;;;;;;;;-2.50;99.90;;;;;;5092409;28;19962;-81
2024/01/17 02:12:46;;;;;;;;;;;-2.50;99.90;;;;;;5074827;28;19908;-79
2024/01/17 02:15:12;;;;;;;;;;;-1.50;99.90;;;;;;5076595;28;19909;-81
2024/01/17 02:17:37;;;;;;;;;;;-2.60;99.90;;;;;;5075519;28;19908;-79
2024/01/17 02:20:03;;;;;;;;;;;-2.00;99.90;;;;;;5088362;28;19908;-80
2024/01/17 02:22:28;;;;;;;;;;;-2.40;99.90;;;;;;5092052;28;19908;-80
2024/01/17 02:24:54;;;;;;;;;;;-1.00;99.90;;;;;;5072221;28;19980;-80
2024/01/17 02:27:19;;;;;;;;;;;-2.20;99.90;;;;;;5088468;28;19909;-80
2024/01/17 02:29:46;;;;;;;;;;;-2.50;99.90;;;;;;5074080;28;19909;-79
2024/01/17 02:32:11;;;;;;;;;;;-2.60;99.90;;;;;;5087252;28;19908;-79
2024/01/17 02:34:38;;;;;;;;;;;-2.70;99.90;;;;;;5094738;28;19947;-81
2024/01/17 02:37:07;;;;;;;;;;;-2.50;99.90;;;;;;5098497;28;19905;-81
2024/01/17 02:39:33;;;;;;;;;;;-2.50;99.90;;;;;;5098236;28;19892;-79
2024/01/17 02:41:59;;;;;;;;;;;-2.40;99.90;;;;;;5079836;28;19944;-82
2024/01/17 02:47:00;;;;;;;;;;;-2.40;99.90;;;;;;5617171;22;19925;-79
2024/01/17 02:49:26;;;;;;;;;;;-2.40;99.90;;;;;;5082179;28;19954;-82
2024/01/17 02:51:51;;;;;;;;;;;-1.80;99.90;;;;;;5081784;28;19892;-80
2024/01/17 02:54:17;;;;;;;;;;;-2.30;99.90;;;;;;5096039;28;20451;-81
2024/01/17 02:56:42;;;;;;;;;;;-1.70;99.90;;;;;;5076257;28;20377;-80
2024/01/17 02:59:08;;;;;;;;;;;-1.70;99.90;;;;;;5076232;28;19908;-80
2024/01/17 03:01:34;;;;;;;;;;;-2.00;99.90;;;;;;5076172;28;19977;-79
2024/01/17 03:03:59;;;;;;;;;;;-1.90;99.90;;;;;;5076044;28;19931;-77
2024/01/17 03:06:25;;;;;;;;;;;-1.70;99.90;;;;;;5078863;28;19923;-78
2024/01/17 03:08:50;;;;;;;;;;;-1.10;99.90;;;;;;5079749;28;19912;-77
2024/01/17 03:11:16;;;;;;;;;;;-0.50;99.90;;;;;;5062030;28;19908;-78
2024/01/17 03:13:41;;;;;;;;;;;-1.70;99.90;;;;;;5069514;28;19915;-78
2024/01/17 03:16:07;;;;;;;;;;;-1.70;99.90;;;;;;5068632;28;20010;-77
2024/01/17 03:18:33;;;;;;;;;;;-1.60;99.90;;;;;;5060369;28;19967;-77
2024/01/17 03:20:58;;;;;;;;;;;-1.50;99.90;;;;;;5060563;28;19912;-77
2024/01/17 03:23:24;;;;;;;;;;;-1.40;99.90;;;;;;5060327;28;19912;-78
2024/01/17 03:25:49;;;;;;;;;;;-1.30;99.90;;;;;;5059685;28;20300;-77
2024/01/17 03:28:14;;;;;;;;;;;-1.30;99.90;;;;;;5078697;28;20296;-78
2024/01/17 03:30:40;;;;;;;;;;;-1.30;99.90;;;;;;5078070;28;19916;-78
2024/01/17 03:33:05;;;;;;;;;;;-0.50;99.90;;;;;;5077946;28;19916;-78
2024/01/17 03:35:31;;;;;;;;;;;-1.20;99.90;;;;;;5060361;28;19916;-78
2024/01/17 03:37:57;;;;;;;;;;;-1.30;99.90;;;;;;5078040;28;20285;-78
2024/01/17 03:40:23;;;;;;;;;;;-1.20;99.90;;;;;;5060094;28;20365;-78
2024/01/17 03:42:48;;;;;;;;;;;-1.20;99.90;;;;;;5060311;28;19923;-78
2024/01/17 03:45:14;;;;;;;;;;;-1.10;99.90;;;;;;5079537;28;19913;-78
2024/01/17 03:47:39;;;;;;;;;;;-1.10;99.90;;;;;;5062397;28;19927;-77
2024/01/17 03:50:05;;;;;;;;;;;-1.10;99.90;;;;;;5062822;28;19909;-79
2024/01/17 03:52:31;;;;;;;;;;;-1.10;99.90;;;;;;5060011;28;19965;-77
2024/01/17 03:54:56;;;;;;;;;;;-1.20;99.90;;;;;;5076905;28;19909;-80
2024/01/17 03:57:22;;;;;;;;;;;-1.10;99.90;;;;;;5078996;28;20444;-81
2024/01/17 03:59:47;;;;;;;;;;;-1.00;99.90;;;;;;5057523;28;19908;-80
2024/01/17 04:02:13;;;;;;;;;;;-0.90;99.90;;;;;;5058104;28;19909;-80
2024/01/17 04:04:39;;;;;;;;;;;-0.80;99.90;;;;;;5058061;28;19913;-80
2024/01/17 04:07:04;;;;;;;;;;;-0.70;99.90;;;;;;5058385;28;20408;-80
2024/01/17 04:09:30;;;;;;;;;;;-0.80;99.90;;;;;;5085166;28;19909;-81
2024/01/17 04:11:55;;;;;;;;;;;-0.80;99.90;;;;;;5084248;28;20373;-80
2024/01/17 04:14:21;;;;;;;;;;;-0.80;99.90;;;;;;5083293;28;19909;-81
2024/01/17 04:16:46;;;;;;;;;;;-0.70;99.90;;;;;;5063929;28;19919;-81
2024/01/17 04:19:13;;;;;;;;;;;-0.70;99.90;;;;;;5080444;28;20451;-81
2024/01/17 04:21:38;;;;;;;;;;;-0.70;99.90;;;;;;5092235;28;19901;-82
2024/01/17 04:24:04;;;;;;;;;;;-0.60;99.90;;;;;;5073297;28;19942;-80
2024/01/17 04:26:30;;;;;;;;;;;-0.70;99.90;;;;;;5071070;28;19924;-79
2024/01/17 04:28:55;;;;;;;;;;;-0.70;99.90;;;;;;5070844;28;19915;-78
2024/01/17 04:31:30;;;;;;;;;;;-0.80;99.90;;;;;;5068991;28;19931;-80
2024/01/17 04:33:56;;;;;;;;;;;-0.90;99.90;;;;;;5070023;28;19948;-81
2024/01/17 04:36:24;;;;;;;;;;;-1.00;99.90;;;;;;5088352;28;20070;-80
2024/01/17 04:38:49;;;;;;;;;;;-1.00;99.90;;;;;;5086787;28;20377;-79
2024/01/17 04:41:15;;;;;;;;;;;-1.10;99.90;;;;;;5085744;28;19905;-79
2024/01/17 04:43:41;;;;;;;;;;;-1.10;99.90;;;;;;5087069;28;19908;-81
2024/01/17 04:46:12;;;;;;;;;;;-1.10;99.90;;;;;;5087791;28;20003;-81
2024/01/17 04:48:39;;;;;;;;;;;-1.10;99.90;;;;;;5070347;28;19912;-81
2024/01/17 04:51:04;;;;;;;;;;;-0.90;99.90;;;;;;5087262;28;20276;-81
2024/01/17 04:53:30;;;;;;;;;;;-0.90;99.90;;;;;;5069025;28;19948;-81
2024/01/17 04:55:56;;;;;;;;;;;-0.90;99.90;;;;;;5068096;28;19909;-81
2024/01/17 04:58:22;;;;;;;;;;;-1.00;99.90;;;;;;5074480;28;19892;-82
2024/01/17 05:00:47;;;;;;;;;;;-1.00;99.90;;;;;;5097190;28;19919;-81
2024/01/17 05:03:13;;;;;;;;;;;-0.90;99.90;;;;;;5071293;28;20273;-80
2024/01/17 05:05:41;;;;;;;;;;;-0.90;99.90;;;;;;5060201;28;19924;-80
2024/01/17 05:08:06;;;;;;;;;;;-0.80;99.90;;;;;;5059910;28;19908;-80
2024/01/17 05:10:32;;;;;;;;;;;-1.00;99.90;;;;;;5065048;28;19908;-82
2024/01/17 05:12:57;;;;;;;;;;;-0.90;99.90;;;;;;5073093;28;19909;-81
2024/01/17 05:15:24;;;;;;;;;;;-1.10;99.90;;;;;;5092535;28;19915;-81
2024/01/17 05:17:50;;;;;;;;;;;-1.10;99.90;;;;;;5074339;28;19916;-82
2024/01/17 05:20:16;;;;;;;;;;;-0.90;99.90;;;;;;5092445;28;19971;-81
2024/01/17 05:22:42;;;;;;;;;;;-0.80;99.90;;;;;;5082976;28;19916;-82
2024/01/17 05:25:09;;;;;;;;;;;-0.90;99.90;;;;;;5221486;22;20073;-80
2024/01/17 05:27:34;;;;;;;;;;;-1.00;99.90;;;;;;5094080;28;19969;-80
2024/01/17 05:30:00;;;;;;;;;;;-0.80;99.90;;;;;;5082287;28;19931;-80
2024/01/17 05:32:25;;;;;;;;;;;-1.20;99.90;;;;;;5099428;28;19908;-81
2024/01/17 05:34:53;;;;;;;;;;;-1.20;99.90;;;;;;5100750;28;19904;-82
2024/01/17 05:37:21;;;;;;;;;;;-1.10;99.90;;;;;;5098365;28;19935;-80
2024/01/17 05:39:49;;;;;;;;;;;-1.50;99.90;;;;;;5069795;28;20346;-80
2024/01/17 05:42:15;;;;;;;;;;;-1.20;99.90;;;;;;5094760;28;19908;-80
2024/01/17 05:44:40;;;;;;;;;;;-1.50;99.90;;;;;;5097693;28;19913;-80
2024/01/17 05:47:07;;;;;;;;;;;-1.60;99.90;;;;;;5081942;28;19943;-81
2024/01/17 05:49:33;;;;;;;;;;;-1.60;99.90;;;;;;5083729;28;19913;-81
2024/01/17 05:51:59;;;;;;;;;;;-1.80;99.90;;;;;;5055607;28;19913;-81
2024/01/17 05:54:24;;;;;;;;;;;-1.60;99.90;;;;;;5072218;28;19912;-80
2024/01/17 05:56:50;;;;;;;;;;;-1.70;99.90;;;;;;5077183;28;19909;-81
2024/01/17 05:59:15;;;;;;;;;;;-1.80;99.90;;;;;;5078979;28;19909;-82
2024/01/17 06:01:41;;;;;;;;;;;-1.60;99.90;;;;;;5078176;28;19893;-81
2024/01/17 06:04:07;;;;;;;;;;;-1.60;99.90;;;;;;5078255;28;20368;-81
2024/01/17 06:06:32;;;;;;;;;;;-1.60;99.90;;;;;;5079913;28;19917;-81
2024/01/17 06:08:58;;;;;;;;;;;-1.40;99.90;;;;;;5078227;28;19913;-82
2024/01/17 06:11:24;;;;;;;;;;;-1.00;99.90;;;;;;5079080;28;19931;-81
2024/01/17 06:13:51;;;;;;;;;;;-1.00;99.90;;;;;;5079156;28;19893;-82
2024/01/17 06:16:17;;;;;;;;;;;-1.10;99.90;;;;;;5078191;28;20304;-81
2024/01/17 06:18:42;;;;;;;;;;;-0.90;99.90;;;;;;5078646;28;19909;-82
2024/01/17 06:21:08;;;;;;;;;;;-1.30;99.90;;;;;;5060471;28;19905;-81
2024/01/17 06:23:34;;;;;;;;;;;-0.60;99.90;;;;;;5078457;28;19969;-81
2024/01/17 06:25:59;;;;;;;;;;;-0.80;99.90;;;;;;5078025;28;19924;-81
2024/01/17 06:28:25;;;;;;;;;;;-0.10;99.90;;;;;;5078290;28;19901;-80
2024/01/17 06:30:51;;;;;;;;;;;-1.00;99.90;;;;;;5078597;28;19899;-82
2024/01/17 06:33:18;;;;;;;;;;;-0.80;99.90;;;;;;5076137;28;19908;-81
2024/01/17 06:35:46;;;;;;;;;;;-0.10;99.90;;;;;;5060623;28;19908;-81
2024/01/17 06:38:12;;;;;;;;;;;-0.70;99.90;;;;;;5060331;28;19893;-81
2024/01/17 06:40:37;;;;;;;;;;;-0.80;99.90;;;;;;5076921;28;19940;-81
2024/01/17 06:43:03;;;;;;;;;;;-0.30;99.90;;;;;;5060469;28;19915;-81
2024/01/17 06:45:29;;;;;;;;;;;-0.70;99.90;;;;;;5076257;28;19940;-81
2024/01/17 06:47:57;;;;;;;;;;;-0.10;99.90;;;;;;5060327;28;19908;-80
2024/01/17 06:50:23;;;;;;;;;;;-0.80;99.90;;;;;;5077001;28;19909;-80
2024/01/17 06:52:49;;;;;;;;;;;-0.80;99.90;;;;;;5059402;28;19915;-79
2024/01/17 06:55:15;;;;;;;;;;;0.00;99.90;;;;;;5059965;28;19924;-81
2024/01/17 06:57:41;;;;;;;;;;;-0.30;99.90;;;;;;5077787;28;19900;-81
2024/01/17 07:00:07;;;;;;;;;;;-0.50;99.90;;;;;;5077152;28;19976;-82
2024/01/17 07:02:33;;;;;;;;;;;-0.50;99.90;;;;;;5059147;28;19915;-81
2024/01/17 07:04:58;;;;;;;;;;;-0.60;99.90;;;;;;5060023;28;19909;-82
2024/01/17 07:07:24;;;;;;;;;;;0.20;99.90;;;;;;5076101;28;19960;-80
2024/01/17 07:09:49;;;;;;;;;;;-0.10;99.90;;;;;;5077022;28;19900;-81
2024/01/17 07:12:15;;;;;;;;;;;-0.20;99.90;;;;;;5076875;28;19912;-81
2024/01/17 07:14:41;;;;;;;;;;;-0.30;99.90;;;;;;5075113;28;19894;-82
2024/01/17 07:17:07;;;;;;;;;;;-0.20;99.90;;;;;;5045479;28;19976;-80
2024/01/17 07:19:36;;;;;;;;;;;-0.10;99.90;;;;;;5052913;28;19916;-80
2024/01/17 07:22:02;;;;;;;;;;;-0.10;99.90;;;;;;5057903;28;19909;-82
2024/01/17 07:24:27;;;;;;;;;;;-0.40;99.90;;;;;;5059005;28;20367;-81
2024/01/17 07:26:53;;;;;;;;;;;-0.10;99.90;;;;;;5075449;28;19988;-79
2024/01/17 07:29:18;;;;;;;;;;;0.40;99.90;;;;;;5064640;28;19917;-82
2024/01/17 07:31:44;;;;;;;;;;;0.00;99.90;;;;;;5077057;28;19905;-81
2024/01/17 07:34:10;;;;;;;;;;;0.30;99.90;;;;;;5058947;28;19933;-82
2024/01/17 07:36:35;;;;;;;;;;;1.10;99.90;;;;;;5076313;28;19916;-81
2024/01/17 07:39:02;;;;;;;;;;;1.40;99.90;;;;;;5076529;28;19893;-81
2024/01/17 07:41:29;;;;;;;;;;;0.60;99.90;;;;;;5059314;28;19913;-81
2024/01/17 07:43:55;;;;;;;;;;;0.50;99.90;;;;;;5061028;28;19897;-81
2024/01/17 07:46:21;;;;;;;;;;;0.50;99.90;;;;;;5079310;28;19912;-81
2024/01/17 07:48:46;;;;;;;;;;;0.60;99.90;;;;;;5059305;28;19904;-83
2024/01/17 07:51:14;;;;;;;;;;;0.50;99.90;;;;;;5058670;28;22147;-82
2024/01/17 07:53:40;;;;;;;;;;;0.50;99.90;;;;;;5077029;28;19944;-82
2024/01/17 07:56:05;;;;;;;;;;;1.20;99.90;;;;;;5059269;28;19893;-81
2024/01/17 07:58:31;;;;;;;;;;;0.40;99.90;;;;;;5076229;28;19932;-82
2024/01/17 08:00:57;;;;;;;;;;;1.30;99.90;;;;;;5059378;28;19909;-83
2024/01/17 08:03:23;;;;;;;;;;;0.50;99.90;;;;;;5059211;28;19909;-81
2024/01/17 08:05:48;;;;;;;;;;;1.10;99.90;;;;;;5076132;28;19921;-81
2024/01/17 08:08:14;;;;;;;;;;;0.50;99.90;;;;;;5058233;28;19931;-82
2024/01/17 08:10:40;;;;;;;;;;;0.30;99.90;;;;;;5076552;28;19913;-81
2024/01/17 08:13:05;;;;;;;;;;;0.60;99.90;;;;;;5060209;28;19893;-81
2024/01/17 08:15:31;;;;;;;;;;;0.70;99.90;;;;;;5077021;28;19893;-81
2024/01/17 08:17:57;;;;;;;;;;;0.80;99.90;;;;;;5059924;28;19944;-81
2024/01/17 08:20:22;;;;;;;;;;;0.70;99.90;;;;;;5077243;28;19944;-82
2024/01/17 08:22:48;;;;;;;;;;;1.40;99.90;;;;;;5077596;28;19955;-81
2024/01/17 08:30:27;;;;;;;;;;;0.70;99.90;;;;;;5144559;22;19928;-79
2024/01/17 08:32:53;;;;;;;;;;;1.20;99.90;;;;;;5070179;28;19995;-82
2024/01/17 08:35:19;;;;;;;;;;;0.50;99.90;;;;;;5079083;28;19924;-82
2024/01/17 08:37:45;;;;;;;;;;;0.30;99.90;;;;;;5079794;28;19995;-83
2024/01/17 08:40:11;;;;;;;;;;;0.60;99.90;;;;;;5080967;28;19908;-82
2024/01/17 08:42:43;;;;;;;;;;;0.50;99.90;;;;;;5079157;28;19908;-81
2024/01/17 08:45:09;;;;;;;;;;;0.20;99.90;;;;;;5074759;28;19921;-80
2024/01/17 08:47:34;;;;;;;;;;;0.40;99.90;;;;;;5057163;28;20364;-81
2024/01/17 08:50:00;;;;;;;;;;;0.30;99.90;;;;;;5059288;28;19919;-80
2024/01/17 08:52:26;;;;;;;;;;;0.40;99.90;;;;;;5076804;28;19900;-82
2024/01/17 08:54:54;;;;;;;;;;;0.50;99.90;;;;;;5058954;28;19916;-80
2024/01/17 08:57:20;;;;;;;;;;;0.60;99.90;;;;;;5060145;28;19909;-82
2024/01/17 08:59:46;;;;;;;;;;;0.50;99.90;;;;;;5076688;28;19923;-82
2024/01/17 09:02:12;;;;;;;;;;;0.70;99.90;;;;;;5076459;28;19893;-81
2024/01/17 09:14:59;;;;;;;;;;;0.50;99.90;;;;;;5419388;22;19931;-82
2024/01/17 09:17:24;;;;;;;;;;;0.50;99.90;;;;;;5097407;28;19940;-81
2024/01/17 09:19:50;;;;;;;;;;;-0.20;99.90;;;;;;5097280;28;19909;-83
2024/01/17 09:22:16;;;;;;;;;;;0.30;99.90;;;;;;5097157;28;19909;-81
2024/01/17 09:27:17;;;;;;;;;;;0.60;99.90;;;;;;5129911;22;19908;-83
2024/01/17 09:29:45;;;;;;;;;;;0.50;99.90;;;;;;5098787;28;20202;-83
2024/01/17 09:32:12;;;;;;;;;;;0.40;99.90;;;;;;5655066;22;19909;-82
2024/01/17 09:34:38;;;;;;;;;;;0.20;99.90;;;;;;5076431;28;19904;-83
2024/01/17 09:37:03;;;;;;;;;;;0.40;99.90;;;;;;5077167;28;19917;-82
2024/01/17 09:39:29;;;;;;;;;;;-0.40;99.90;;;;;;5076702;28;19940;-83
2024/01/17 09:41:56;;;;;;;;;;;0.10;99.90;;;;;;5076557;28;19916;-82
2024/01/17 09:44:22;;;;;;;;;;;0.00;99.90;;;;;;5077030;28;19893;-82
2024/01/17 09:46:48;;;;;;;;;;;0.30;99.90;;;;;;5076256;28;19923;-83
2024/01/17 09:49:14;;;;;;;;;;;-0.40;99.90;;;;;;5077464;28;19913;-82
2024/01/17 10:02:01;;;;;;;;;;;-0.20;99.90;;;;;;5159772;22;19927;-82
2024/01/17 10:04:27;;;;;;;;;;;0.40;99.90;;;;;;5096448;28;19940;-80
2024/01/17 10:06:55;;;;;;;;;;;-0.10;99.90;;;;;;5098224;28;19924;-82
2024/01/17 10:09:24;;;;;;;;;;;0.00;99.90;;;;;;5083426;28;19970;-83
2024/01/17 10:11:50;;;;;;;;;;;0.00;99.90;;;;;;5101089;28;19915;-83
2024/01/17 10:14:16;;;;;;;;;;;0.30;99.90;;;;;;5171607;22;19924;-83
2024/01/17 10:16:42;;;;;;;;;;;1.40;99.90;;;;;;5100749;28;19896;-81
2024/01/17 10:19:08;;;;;;;;;;;0.80;99.90;;;;;;5101697;28;19918;-83
2024/01/17 10:21:34;;;;;;;;;;;0.60;99.90;;;;;;5084154;28;19908;-81
2024/01/17 10:24:01;;;;;;;;;;;1.10;99.90;;;;;;5100649;28;19935;-82
2024/01/17 10:26:26;;;;;;;;;;;0.30;99.90;;;;;;5082917;28;19917;-82
2024/01/17 10:28:52;;;;;;;;;;;0.50;99.90;;;;;;5100549;28;20472;-81
2024/01/17 10:31:21;;;;;;;;;;;0.50;99.90;;;;;;5083858;28;19976;-81
2024/01/17 10:41:36;;;;;;;;;;;0.70;99.90;;;;;;5934184;22;19915;-82
2024/01/17 11:02:15;;;;;;;;;;;0.60;99.90;;;;;;5426893;22;20384;-80
2024/01/17 11:04:41;;;;;;;;;;;0.90;99.90;;;;;;5076887;28;19927;-79
2024/01/17 11:07:07;;;;;;;;;;;0.60;99.90;;;;;;5093557;28;20015;-80
2024/01/17 11:09:33;;;;;;;;;;;0.30;99.90;;;;;;5075909;28;19915;-78
2024/01/17 11:11:59;;;;;;;;;;;0.40;99.90;;;;;;5069790;28;20011;-79
2024/01/17 11:14:30;;;;;;;;;;;1.00;99.90;;;;;;5071886;28;19909;-80
2024/01/17 11:16:57;;;;;;;;;;;0.90;99.90;;;;;;5071626;28;19935;-80
2024/01/17 11:19:23;;;;;;;;;;;1.10;99.90;;;;;;5093591;28;19911;-81
2024/01/17 11:21:49;;;;;;;;;;;0.30;99.90;;;;;;5077446;28;19916;-79
2024/01/17 11:24:24;;;;;;;;;;;0.00;99.90;;;;;;5075509;28;19908;-80
2024/01/17 11:27:08;;;;;;;;;;;0.00;99.90;;;;;;5073290;28;20373;-80
2024/01/17 11:29:40;;;;;;;;;;;0.10;99.90;;;;;;5089485;28;20377;-79
2024/01/17 11:32:14;;;;;;;;;;;0.00;99.90;;;;;;5077801;28;19948;-80
2024/01/17 11:34:40;;;;;;;;;;;-0.60;99.90;;;;;;5077003;28;19909;-79
2024/01/17 11:37:05;;;;;;;;;;;-0.20;99.90;;;;;;5078098;28;19920;-80
2024/01/17 11:39:31;;;;;;;;;;;-0.40;99.90;;;;;;5095374;28;19908;-81
2024/01/17 11:41:57;;;;;;;;;;;0.60;99.90;;;;;;5060374;28;19908;-79
2024/01/17 11:44:23;;;;;;;;;;;0.30;99.90;;;;;;5094832;28;19944;-80
2024/01/17 11:46:51;;;;;;;;;;;0.70;99.90;;;;;;5115527;28;19948;-79
2024/01/17 11:49:27;;;;;;;;;;;0.80;99.90;;;;;;5097975;28;20329;-81
2024/01/17 11:51:52;;;;;;;;;;;0.60;99.90;;;;;;5115404;28;19940;-79
2024/01/17 11:54:18;;;;;;;;;;;-0.10;99.90;;;;;;5101114;28;19909;-79
2024/01/17 11:56:43;;;;;;;;;;;0.00;99.90;;;;;;5091417;28;19931;-79
2024/01/17 11:59:12;;;;;;;;;;;0.80;99.90;;;;;;5069921;28;19915;-80
2024/01/17 12:01:38;;;;;;;;;;;-0.20;99.90;;;;;;5068972;28;20296;-79
2024/01/17 12:04:13;;;;;;;;;;;0.10;99.90;;;;;;5069594;28;19920;-80
2024/01/17 12:06:40;;;;;;;;;;;-0.20;99.90;;;;;;5067544;28;19921;-80
2024/01/17 12:09:08;;;;;;;;;;;0.20;99.90;;;;;;5059210;28;19968;-79
2024/01/17 12:11:34;;;;;;;;;;;0.00;99.90;;;;;;5072513;28;19920;-79
2024/01/17 12:13:59;;;;;;;;;;;-0.10;99.90;;;;;;5041862;28;19909;-79
2024/01/17 12:16:25;;;;;;;;;;;-0.40;99.90;;;;;;5047534;28;20430;-79
2024/01/17 12:18:57;;;;;;;;;;;0.80;99.90;;;;;;5065282;28;19966;-79
2024/01/17 12:21:23;;;;;;;;;;;-0.10;99.90;;;;;;5072921;28;19908;-80
2024/01/17 12:23:49;;;;;;;;;;;0.50;99.90;;;;;;5049000;28;19900;-80
2024/01/17 12:26:15;;;;;;;;;;;0.10;99.90;;;;;;5074124;28;19900;-80
2024/01/17 12:28:40;;;;;;;;;;;-0.60;99.90;;;;;;5053350;28;19967;-79
2024/01/17 12:31:07;;;;;;;;;;;0.70;99.90;;;;;;5045566;28;20440;-79
2024/01/17 12:33:33;;;;;;;;;;;0.00;99.90;;;;;;5056173;28;19927;-81
2024/01/17 12:36:03;;;;;;;;;;;0.00;99.90;;;;;;5069758;28;19913;-79
2024/01/17 12:38:30;;;;;;;;;;;0.80;99.90;;;;;;5053729;28;19933;-79
2024/01/17 12:40:57;;;;;;;;;;;0.20;99.90;;;;;;5052982;28;19908;-79
2024/01/17 12:43:23;;;;;;;;;;;0.80;99.90;;;;;;5069093;28;19960;-81
2024/01/17 12:45:49;;;;;;;;;;;0.10;99.90;;;;;;5073802;28;19900;-80
2024/01/17 12:48:15;;;;;;;;;;;0.20;99.90;;;;;;5075975;28;19915;-80
2024/01/17 12:50:46;;;;;;;;;;;0.20;99.90;;;;;;5072358;28;19943;-81
2024/01/17 12:53:12;;;;;;;;;;;0.20;99.90;;;;;;5072149;28;19915;-79
2024/01/17 12:55:39;;;;;;;;;;;0.40;99.90;;;;;;5054095;28;19963;-81
2024/01/17 12:58:05;;;;;;;;;;;0.30;99.90;;;;;;5067351;28;19979;-80
2024/01/17 13:00:32;;;;;;;;;;;0.40;99.90;;;;;;5055201;28;19916;-79
2024/01/17 13:02:58;;;;;;;;;;;0.30;99.90;;;;;;5054934;28;19925;-80
2024/01/17 13:05:23;;;;;;;;;;;0.30;99.90;;;;;;5070155;28;19988;-81
2024/01/17 13:07:49;;;;;;;;;;;0.20;99.90;;;;;;5066173;28;19909;-81
2024/01/17 13:10:18;;;;;;;;;;;0.30;99.90;;;;;;5067493;28;19916;-79
2024/01/17 13:12:44;;;;;;;;;;;0.50;99.90;;;;;;5043379;28;20453;-79
2024/01/17 13:15:10;;;;;;;;;;;0.70;99.90;;;;;;5063290;28;19909;-79
2024/01/17 13:17:43;;;;;;;;;;;0.80;99.90;;;;;;5048464;28;19916;-80
2024/01/17 13:20:15;;;;;;;;;;;0.80;99.90;;;;;;5066084;28;19916;-80
2024/01/17 13:22:43;;;;;;;;;;;0.90;99.90;;;;;;5065237;28;19963;-79
2024/01/17 13:25:08;;;;;;;;;;;0.30;99.90;;;;;;5050525;28;19916;-80
2024/01/17 13:27:34;;;;;;;;;;;1.60;99.90;;;;;;5063605;28;20395;-80
2024/01/17 13:30:03;;;;;;;;;;;0.80;99.90;;;;;;5061553;28;20445;-79
2024/01/17 13:32:29;;;;;;;;;;;0.80;99.90;;;;;;5061825;28;19909;-79
2024/01/17 13:34:54;;;;;;;;;;;0.90;99.90;;;;;;5048903;28;19989;-79
2024/01/17 13:37:22;;;;;;;;;;;1.20;99.90;;;;;;5053930;28;20407;-80
2024/01/17 13:39:47;;;;;;;;;;;0.90;99.90;;;;;;5054516;28;20336;-80
2024/01/17 13:42:13;;;;;;;;;;;1.00;99.90;;;;;;5050478;28;19913;-81
2024/01/17 13:44:39;;;;;;;;;;;1.50;99.90;;;;;;5073505;28;19908;-80
2024/01/17 13:47:05;;;;;;;;;;;1.00;99.90;;;;;;5048721;28;19979;-78
2024/01/17 13:49:33;;;;;;;;;;;1.10;99.90;;;;;;5068935;28;19912;-81
2024/01/17 13:51:58;;;;;;;;;;;1.30;99.90;;;;;;5071982;28;19909;-79
2024/01/17 13:54:24;;;;;;;;;;;1.40;99.90;;;;;;5063871;28;19916;-80
2024/01/17 13:56:50;;;;;;;;;;;0.90;99.90;;;;;;5047925;28;20023;-79
2024/01/17 13:59:15;;;;;;;;;;;1.00;99.90;;;;;;5074649;28;19913;-81
2024/01/17 14:01:41;;;;;;;;;;;1.10;99.90;;;;;;5076174;28;20270;-80
2024/01/17 14:04:06;;;;;;;;;;;1.20;99.90;;;;;;5075360;28;19913;-81
2024/01/17 14:06:32;;;;;;;;;;;1.60;99.90;;;;;;5071081;28;19921;-80
2024/01/17 14:08:58;;;;;;;;;;;1.00;99.90;;;;;;5070635;28;19909;-80
2024/01/17 14:11:23;;;;;;;;;;;1.60;99.90;;;;;;5073013;28;19971;-80
2024/01/17 14:13:49;;;;;;;;;;;1.20;99.90;;;;;;5075983;28;20405;-80
2024/01/17 14:16:15;;;;;;;;;;;1.30;99.90;;;;;;5059568;28;20396;-81
2024/01/17 14:18:40;;;;;;;;;;;0.60;99.90;;;;;;5058930;28;20384;-82
2024/01/17 14:21:06;;;;;;;;;;;1.30;99.90;;;;;;5080192;28;20039;-80
2024/01/17 14:23:32;;;;;;;;;;;1.10;99.90;;;;;;5072571;28;19909;-80
2024/01/17 14:25:57;;;;;;;;;;;0.90;99.90;;;;;;5057209;28;19921;-79
2024/01/17 14:28:23;;;;;;;;;;;0.90;99.90;;;;;;5064989;28;19909;-79
2024/01/17 14:30:49;;;;;;;;;;;1.50;99.90;;;;;;5041516;28;19909;-78
2024/01/17 14:33:19;;;;;;;;;;;1.20;99.90;;;;;;5057393;28;20443;-79
2024/01/17 14:35:45;;;;;;;;;;;2.00;99.90;;;;;;5059226;28;19970;-78
2024/01/17 14:38:12;;;;;;;;;;;1.80;99.90;;;;;;5060551;28;19908;-78
2024/01/17 14:40:38;;;;;;;;;;;1.00;99.90;;;;;;5039508;28;19978;-79
2024/01/17 14:43:03;;;;;;;;;;;1.10;99.90;;;;;;5060350;28;20357;-79
2024/01/17 14:45:29;;;;;;;;;;;1.30;99.90;;;;;;5043163;28;19921;-79
2024/01/17 14:47:54;;;;;;;;;;;1.60;99.90;;;;;;5039811;28;19909;-79
2024/01/17 14:50:20;;;;;;;;;;;1.10;99.90;;;;;;5056581;28;19968;-79
2024/01/17 14:52:45;;;;;;;;;;;1.00;99.90;;;;;;5058408;28;19909;-77
2024/01/17 14:55:11;;;;;;;;;;;1.70;99.90;;;;;;5040129;28;19956;-79
2024/01/17 14:57:37;;;;;;;;;;;1.40;99.90;;;;;;5036875;28;20015;-78
2024/01/17 15:00:05;;;;;;;;;;;1.50;99.90;;;;;;5036940;28;19931;-78
2024/01/17 15:02:31;;;;;;;;;;;1.10;99.90;;;;;;5039708;28;19924;-79
2024/01/17 15:04:56;;;;;;;;;;;1.10;99.90;;;;;;5067561;28;19909;-81
2024/01/17 15:07:22;;;;;;;;;;;1.10;99.90;;;;;;5074173;28;19940;-80
2024/01/17 15:09:47;;;;;;;;;;;1.10;99.90;;;;;;5072457;28;20339;-80
2024/01/17 15:12:13;;;;;;;;;;;1.10;99.90;;;;;;5056030;28;19924;-80
2024/01/17 15:14:38;;;;;;;;;;;1.10;99.90;;;;;;5072700;28;19908;-79